Time;durP1;ratioP1;P1;durP2;ratioP2;P2;SDS_P1;SDS_P2;PMS_P1;PMS_P2;Temp;Humidity;BMP_temperature;BMP_pressure;BME280_temperature;BME280_humidity;BME280_pressure;Samples;Min_cycle;Max_cycle;Signal;HPM_P1;HPM_P2
2022/07/06 00:01:34;;;;;;;2.30;2.10;;;19.90;68.70;;;;;;5045609;28;20021;-74
2022/07/06 00:04:01;;;;;;;3.17;2.40;;;19.90;68.90;;;;;;5011688;28;20044;-75
2022/07/06 00:06:27;;;;;;;3.08;2.20;;;19.80;70.50;;;;;;5028325;28;20267;-75
2022/07/06 00:08:52;;;;;;;4.37;2.23;;;19.80;69.60;;;;;;5028207;28;20089;-75
2022/07/06 00:11:18;;;;;;;4.33;2.53;;;19.80;70.20;;;;;;5045475;28;20060;-74
2022/07/06 00:13:44;;;;;;;3.67;2.57;;;19.70;70.10;;;;;;5043827;28;20048;-75
2022/07/06 00:16:10;;;;;;;3.60;2.33;;;19.80;70.90;;;;;;5027935;28;20025;-75
2022/07/06 00:18:35;;;;;;;3.90;2.37;;;19.70;70.50;;;;;;5045448;28;20026;-75
2022/07/06 00:21:01;;;;;;;3.70;2.10;;;19.70;70.40;;;;;;5044390;28;20053;-75
2022/07/06 00:23:27;;;;;;;2.77;2.10;;;19.70;69.00;;;;;;5027501;28;20029;-75
2022/07/06 00:25:53;;;;;;;4.10;2.50;;;19.60;69.80;;;;;;5045378;28;20029;-75
2022/07/06 00:28:18;;;;;;;2.80;2.43;;;19.60;69.70;;;;;;5043766;28;20029;-75
2022/07/06 00:30:44;;;;;;;5.50;2.20;;;19.60;70.20;;;;;;5027514;28;20080;-75
2022/07/06 00:33:10;;;;;;;3.27;2.47;;;19.50;70.70;;;;;;5043686;28;20025;-74
2022/07/06 00:35:35;;;;;;;4.53;2.73;;;19.50;70.50;;;;;;5044020;28;20026;-75
2022/07/06 00:38:01;;;;;;;5.60;2.30;;;19.50;71.00;;;;;;5045098;28;20029;-75
2022/07/06 00:40:27;;;;;;;3.27;2.57;;;19.50;72.00;;;;;;5043977;28;20028;-74
2022/07/06 00:42:53;;;;;;;3.87;2.47;;;19.40;71.30;;;;;;5029700;23;20050;-78
2022/07/06 00:45:19;;;;;;;3.03;2.67;;;19.40;70.30;;;;;;5005572;28;20022;-78
2022/07/06 00:47:45;;;;;;;3.53;2.33;;;19.40;68.30;;;;;;5004427;28;20030;-78
2022/07/06 00:50:22;;;;;;;3.92;2.30;;;19.50;68.60;;;;;;5005428;28;20026;-77
2022/07/06 00:52:47;;;;;;;2.28;1.98;;;19.50;69.40;;;;;;4984512;28;20027;-78
2022/07/06 00:55:14;;;;;;;3.93;2.90;;;19.50;69.40;;;;;;4984948;28;20347;-78
2022/07/06 00:57:40;;;;;;;3.78;2.30;;;19.50;68.70;;;;;;4984524;28;20322;-77
2022/07/06 01:00:09;;;;;;;3.80;2.57;;;19.50;69.20;;;;;;4984534;28;20023;-77
2022/07/06 01:02:36;;;;;;;3.42;2.45;;;19.50;68.50;;;;;;4955356;28;20026;-80
2022/07/06 01:05:04;;;;;;;5.50;2.60;;;19.50;69.50;;;;;;4971793;28;20023;-81
2022/07/06 01:07:30;;;;;;;2.80;2.10;;;19.50;69.40;;;;;;4973899;28;20018;-80
2022/07/06 01:09:56;;;;;;;4.80;2.63;;;19.40;70.40;;;;;;4987497;28;20073;-79
2022/07/06 01:12:21;;;;;;;2.53;2.30;;;19.40;70.60;;;;;;4984907;28;20042;-78
2022/07/06 01:14:47;;;;;;;4.27;2.53;;;19.40;72.10;;;;;;4984340;28;20035;-77
2022/07/06 01:17:14;;;;;;;3.10;2.20;;;19.40;70.90;;;;;;4968413;28;20027;-77
2022/07/06 01:19:39;;;;;;;3.13;2.20;;;19.40;71.30;;;;;;4968391;28;20022;-77
2022/07/06 01:22:05;;;;;;;3.77;2.23;;;19.40;72.70;;;;;;4984382;28;20023;-77
2022/07/06 01:24:31;;;;;;;4.33;2.90;;;19.40;71.60;;;;;;4985109;28;20026;-77
2022/07/06 01:26:57;;;;;;;4.47;2.27;;;19.30;72.20;;;;;;4967827;28;20022;-76
2022/07/06 01:29:23;;;;;;;3.75;2.33;;;19.30;71.70;;;;;;4984290;28;20125;-76
2022/07/06 01:31:49;;;;;;;5.03;3.17;;;19.30;71.00;;;;;;4984763;28;20047;-76
2022/07/06 01:34:18;;;;;;;4.40;2.35;;;19.30;72.10;;;;;;4983773;28;20050;-76
2022/07/06 01:36:44;;;;;;;5.35;2.55;;;19.30;71.80;;;;;;4964764;28;20035;-77
2022/07/06 01:39:10;;;;;;;3.10;2.80;;;19.20;71.80;;;;;;4964657;28;20066;-76
2022/07/06 01:41:36;;;;;;;4.10;2.23;;;19.20;72.20;;;;;;4965076;28;20106;-75
2022/07/06 01:44:03;;;;;;;4.53;2.78;;;19.20;72.10;;;;;;4974604;28;20086;-76
2022/07/06 01:46:29;;;;;;;;;;;19.20;72.90;;;;;;4968377;28;20023;-77
2022/07/06 01:48:55;;;;;;;8.23;2.50;;;19.10;73.20;;;;;;4983754;28;19929;-75
2022/07/06 01:51:21;;;;;;;3.53;2.30;;;19.10;72.70;;;;;;4983814;28;20038;-75
2022/07/06 01:53:47;;;;;;;2.67;2.47;;;19.10;72.80;;;;;;4984586;28;20034;-76
2022/07/06 01:56:13;;;;;;;3.35;2.60;;;19.00;72.60;;;;;;4986961;28;20029;-79
2022/07/06 01:58:39;;;;;;;3.90;2.00;;;19.00;71.90;;;;;;4969631;28;20023;-77
2022/07/06 02:01:13;;;;;;;2.85;2.10;;;19.00;72.60;;;;;;4984377;28;20518;-77
2022/07/06 02:03:39;;;;;;;4.35;2.70;;;19.00;71.80;;;;;;4967015;28;20023;-77
2022/07/06 02:06:05;;;;;;;4.00;2.80;;;18.90;71.30;;;;;;4967842;28;20027;-77
2022/07/06 02:08:32;;;;;;;2.42;2.20;;;18.90;72.70;;;;;;4967590;28;20030;-76
2022/07/06 02:10:57;;;;;;;2.95;2.30;;;18.80;71.60;;;;;;4967501;28;20225;-76
2022/07/06 02:13:24;;;;;;;2.83;2.27;;;18.80;72.20;;;;;;4983907;28;20031;-76
2022/07/06 02:15:49;;;;;;;3.72;2.50;;;18.70;71.80;;;;;;4967172;28;20023;-77
2022/07/06 02:18:15;;;;;;;4.53;2.33;;;18.70;73.50;;;;;;4983360;28;20090;-77
2022/07/06 02:20:41;;;;;;;4.70;3.47;;;18.70;73.80;;;;;;4967516;28;20029;-77
2022/07/06 02:23:07;;;;;;;3.87;2.40;;;18.60;74.10;;;;;;4966933;28;20214;-77
2022/07/06 02:25:33;;;;;;;2.73;2.30;;;18.60;73.50;;;;;;4967362;28;20014;-78
2022/07/06 02:27:58;;;;;;;4.43;2.37;;;18.50;73.60;;;;;;4984047;28;20046;-77
2022/07/06 02:30:24;;;;;;;5.20;2.37;;;18.50;73.50;;;;;;4983401;28;20030;-78
2022/07/06 02:32:50;;;;;;;2.90;2.33;;;18.50;75.40;;;;;;4982929;28;20030;-77
2022/07/06 02:35:15;;;;;;;2.77;2.13;;;18.40;75.00;;;;;;4983064;28;20027;-76
2022/07/06 02:37:41;;;;;;;3.70;2.57;;;18.40;74.70;;;;;;4983023;28;20216;-76
2022/07/06 02:40:08;;;;;;;3.67;2.50;;;18.40;75.10;;;;;;4982866;28;20345;-76
2022/07/06 02:42:33;;;;;;;2.72;2.50;;;18.30;75.80;;;;;;4966430;28;20026;-76
2022/07/06 02:44:59;;;;;;;4.37;2.73;;;18.30;75.80;;;;;;4982622;28;20073;-76
2022/07/06 02:47:26;;;;;;;2.57;2.27;;;18.30;74.70;;;;;;4966936;28;20019;-77
2022/07/06 02:49:52;;;;;;;7.07;3.10;;;18.30;74.30;;;;;;4967093;28;20257;-76
2022/07/06 02:52:18;;;;;;;4.85;3.08;;;18.20;76.10;;;;;;4966727;28;20031;-76
2022/07/06 02:54:44;;;;;;;3.63;2.60;;;18.30;75.30;;;;;;4966617;28;20030;-76
2022/07/06 02:57:10;;;;;;;4.73;3.17;;;18.20;75.60;;;;;;4982569;28;20034;-76
2022/07/06 02:59:36;;;;;;;4.57;3.23;;;18.20;75.70;;;;;;4966554;28;20035;-76
2022/07/06 03:02:04;;;;;;;2.65;2.28;;;18.20;76.30;;;;;;4983181;28;20035;-79
2022/07/06 03:04:30;;;;;;;2.85;2.50;;;18.10;77.10;;;;;;4966759;28;20026;-77
2022/07/06 03:06:55;;;;;;;2.80;2.57;;;18.10;76.70;;;;;;4982708;28;20026;-77
2022/07/06 03:09:21;;;;;;;3.77;3.03;;;18.10;75.10;;;;;;4982608;28;20060;-76
2022/07/06 03:11:47;;;;;;;3.83;2.70;;;18.10;74.50;;;;;;4982333;28;20037;-76
2022/07/06 03:14:12;;;;;;;5.43;3.17;;;18.00;73.90;;;;;;4982258;28;20388;-76
2022/07/06 03:16:38;;;;;;;5.73;2.67;;;18.00;75.90;;;;;;4987562;28;20337;-77
2022/07/06 03:19:04;;;;;;;3.07;2.67;;;18.00;77.10;;;;;;4986519;28;20026;-76
2022/07/06 03:21:30;;;;;;;3.40;2.70;;;17.90;78.60;;;;;;4986658;28;20322;-77
2022/07/06 03:23:55;;;;;;;6.47;3.00;;;18.00;77.50;;;;;;4986178;28;20337;-76
2022/07/06 03:26:21;;;;;;;3.43;2.63;;;18.00;78.00;;;;;;4970523;28;20023;-77
2022/07/06 03:28:47;;;;;;;4.33;2.73;;;18.00;76.20;;;;;;4986595;28;20026;-79
2022/07/06 03:31:13;;;;;;;3.20;2.83;;;18.00;78.20;;;;;;4987148;28;20397;-79
2022/07/06 03:33:38;;;;;;;5.80;2.93;;;18.00;77.00;;;;;;4954053;28;20026;-78
2022/07/06 03:36:04;;;;;;;4.70;2.50;;;18.00;77.30;;;;;;4987340;28;20232;-79
2022/07/06 03:38:30;;;;;;;2.97;2.53;;;18.00;77.20;;;;;;4987067;28;20397;-79
2022/07/06 03:40:56;;;;;;;6.00;3.00;;;18.00;77.70;;;;;;4986536;28;20026;-79
2022/07/06 03:43:22;;;;;;;4.00;3.13;;;18.00;78.30;;;;;;4987558;28;20045;-79
2022/07/06 03:45:47;;;;;;;3.83;2.63;;;18.00;78.20;;;;;;4986841;28;20026;-79
2022/07/06 03:48:13;;;;;;;4.60;2.73;;;17.90;76.90;;;;;;4970576;28;20017;-79
2022/07/06 03:50:39;;;;;;;3.97;2.73;;;17.90;77.00;;;;;;4988042;28;20034;-78
2022/07/06 03:53:05;;;;;;;4.93;2.63;;;17.90;77.20;;;;;;4987387;28;20019;-78
2022/07/06 03:55:30;;;;;;;4.73;2.70;;;17.90;77.90;;;;;;4988085;28;20119;-78
2022/07/06 03:57:56;;;;;;;4.37;2.70;;;17.90;76.90;;;;;;4985931;28;20027;-78
2022/07/06 04:00:22;;;;;;;3.53;2.50;;;17.90;78.70;;;;;;4986063;28;20030;-78
2022/07/06 04:02:48;;;;;;;8.07;3.70;;;17.80;79.20;;;;;;4985694;28;20085;-78
2022/07/06 04:05:13;;;;;;;2.87;2.57;;;17.80;79.30;;;;;;4985939;28;20022;-78
2022/07/06 04:07:39;;;;;;;5.07;2.83;;;17.90;78.70;;;;;;4985903;28;20027;-78
2022/07/06 04:10:06;;;;;;;4.73;2.63;;;17.90;78.50;;;;;;4986816;28;20038;-77
2022/07/06 04:12:32;;;;;;;5.40;2.42;;;17.90;78.50;;;;;;4986595;28;20023;-78
2022/07/06 04:14:57;;;;;;;5.63;2.53;;;17.90;78.40;;;;;;5002522;28;20388;-78
2022/07/06 04:20:09;;;;;;;3.17;2.60;;;17.80;78.00;;;;;;4991984;28;20085;-79
2022/07/06 04:22:39;;;;;;;3.88;2.80;;;17.80;79.40;;;;;;4985603;28;20062;-79
2022/07/06 04:25:05;;;;;;;3.00;2.63;;;17.80;78.60;;;;;;4978308;28;20019;-79
2022/07/06 04:27:31;;;;;;;9.02;2.90;;;17.90;80.60;;;;;;4985636;28;20292;-79
2022/07/06 04:29:57;;;;;;;5.47;2.83;;;17.90;80.30;;;;;;4985676;28;20031;-79
2022/07/06 04:32:22;;;;;;;3.53;2.70;;;17.90;79.80;;;;;;5002117;28;20027;-79
2022/07/06 04:34:48;;;;;;;4.73;2.70;;;17.90;79.70;;;;;;4986091;28;20030;-80
2022/07/06 04:37:14;;;;;;;3.23;2.63;;;17.90;80.00;;;;;;4985822;28;20026;-79
2022/07/06 04:39:40;;;;;;;4.43;2.97;;;17.90;80.70;;;;;;4986051;28;20023;-79
2022/07/06 04:42:05;;;;;;;5.57;2.70;;;17.90;80.90;;;;;;4985524;28;20023;-80
2022/07/06 04:44:31;;;;;;;4.43;2.67;;;17.90;80.60;;;;;;4985710;28;20026;-79
2022/07/06 04:46:57;;;;;;;4.77;2.87;;;17.90;79.70;;;;;;5002504;28;20059;-79
2022/07/06 04:49:23;;;;;;;9.13;3.63;;;17.90;80.50;;;;;;4986954;28;20066;-80
2022/07/06 04:51:48;;;;;;;4.33;2.50;;;18.00;81.00;;;;;;4986322;28;20038;-79
2022/07/06 04:54:14;;;;;;;3.73;2.70;;;18.00;81.10;;;;;;4995775;28;20023;-79
2022/07/06 04:56:40;;;;;;;3.40;2.43;;;18.00;80.30;;;;;;4983836;28;20018;-78
2022/07/06 04:59:06;;;;;;;4.80;2.37;;;18.00;78.60;;;;;;4966618;28;20034;-78
2022/07/06 05:01:31;;;;;;;4.33;2.63;;;18.10;79.70;;;;;;4994324;28;20022;-78
2022/07/06 05:03:57;;;;;;;2.97;2.30;;;18.10;79.50;;;;;;4996058;28;20083;-71
2022/07/06 05:06:23;;;;;;;9.53;2.87;;;18.10;78.20;;;;;;4976312;28;20262;-71
2022/07/06 05:08:48;;;;;;;7.70;2.43;;;18.10;79.30;;;;;;4985686;28;20030;-72
2022/07/06 05:11:14;;;;;;;16.07;6.33;;;18.20;79.30;;;;;;4985626;28;20077;-72
2022/07/06 05:13:40;;;;;;;13.07;5.70;;;18.20;79.70;;;;;;4985258;28;20069;-70
2022/07/06 05:16:06;;;;;;;2.73;2.40;;;18.30;78.60;;;;;;4978526;28;20022;-72
2022/07/06 05:18:32;;;;;;;4.80;2.30;;;18.30;77.40;;;;;;4993718;28;20038;-72
2022/07/06 05:20:58;;;;;;;3.77;2.50;;;18.40;77.80;;;;;;4985082;28;20090;-72
2022/07/06 05:23:23;;;;;;;4.87;2.57;;;18.50;80.30;;;;;;4984875;28;20018;-73
2022/07/06 05:25:49;;;;;;;3.93;2.27;;;18.50;86.80;;;;;;4982947;28;20069;-76
2022/07/06 05:28:15;;;;;;;4.97;2.30;;;18.30;78.40;;;;;;4952353;28;20050;-76
2022/07/06 05:30:40;;;;;;;4.37;2.40;;;18.40;76.80;;;;;;4946564;29;20204;-74
2022/07/06 05:33:06;;;;;;;5.23;2.50;;;18.40;78.60;;;;;;4945978;29;20049;-75
2022/07/06 05:35:32;;;;;;;3.73;2.40;;;18.40;79.90;;;;;;4961091;29;20030;-75
2022/07/06 05:37:58;;;;;;;3.20;2.60;;;18.40;76.60;;;;;;4945843;29;20028;-74
2022/07/06 05:40:23;;;;;;;3.83;2.10;;;18.50;76.60;;;;;;4945989;29;20038;-74
2022/07/06 05:42:49;;;;;;;2.97;2.67;;;18.50;74.80;;;;;;4946548;29;20034;-76
2022/07/06 05:45:15;;;;;;;4.37;2.63;;;18.50;76.90;;;;;;4964803;28;20089;-71
2022/07/06 05:50:25;;;;;;;3.33;2.40;;;18.60;79.20;;;;;;4965487;28;20034;-74
2022/07/06 05:53:01;;;;;;;2.20;2.00;;;18.50;75.30;;;;;;4964993;28;20262;-74
2022/07/06 05:55:27;;;;;;;2.80;2.13;;;18.50;74.60;;;;;;4980164;28;20250;-74
2022/07/06 05:57:53;;;;;;;5.60;2.60;;;18.50;76.90;;;;;;4965103;28;20027;-71
2022/07/06 06:00:21;;;;;;;6.20;2.95;;;18.50;76.50;;;;;;4964931;28;20023;-74
2022/07/06 06:02:46;;;;;;;6.20;2.85;;;18.60;78.50;;;;;;4963708;28;20230;-74
2022/07/06 06:05:13;;;;;;;2.53;1.97;;;18.60;78.20;;;;;;4965297;28;20047;-74
2022/07/06 06:07:39;;;;;;;8.68;2.40;;;18.70;74.60;;;;;;4964162;28;20027;-74
2022/07/06 06:10:10;;;;;;;4.87;1.90;;;18.70;73.90;;;;;;4965381;28;20031;-77
2022/07/06 06:12:36;;;;;;;3.17;2.33;;;18.80;78.90;;;;;;4980367;28;20585;-77
2022/07/06 06:15:02;;;;;;;4.05;2.03;;;18.80;80.50;;;;;;4979680;28;20062;-70
2022/07/06 06:17:28;;;;;;;3.55;2.40;;;18.80;75.00;;;;;;4979894;28;20325;-76
2022/07/06 06:19:54;;;;;;;2.23;1.93;;;18.90;75.80;;;;;;4964886;28;20098;-73
2022/07/06 06:22:19;;;;;;;3.77;2.10;;;18.90;75.40;;;;;;4964884;28;20019;-73
2022/07/06 06:24:45;;;;;;;2.63;1.83;;;18.90;75.40;;;;;;4979282;28;20274;-74
2022/07/06 06:27:11;;;;;;;3.90;1.90;;;19.00;78.60;;;;;;4964536;28;20027;-75
2022/07/06 06:29:37;;;;;;;3.00;2.20;;;19.00;76.70;;;;;;4979595;28;20330;-75
2022/07/06 06:32:05;;;;;;;6.30;2.07;;;19.00;75.40;;;;;;4979702;28;20104;-74
2022/07/06 06:34:31;;;;;;;6.50;2.35;;;19.00;73.70;;;;;;4964321;28;20054;-76
2022/07/06 06:36:57;;;;;;;3.35;2.22;;;19.10;75.10;;;;;;4964293;28;20075;-76
2022/07/06 06:39:23;;;;;;;3.13;1.97;;;19.10;73.70;;;;;;4964514;28;20334;-75
2022/07/06 06:41:49;;;;;;;2.67;1.90;;;19.20;73.10;;;;;;5005324;23;20033;-78
2022/07/06 06:44:14;;;;;;;6.07;2.17;;;19.20;73.10;;;;;;4995741;28;20038;-78
2022/07/06 06:46:41;;;;;;;4.23;1.80;;;19.20;75.20;;;;;;5007479;28;20025;-79
2022/07/06 06:49:07;;;;;;;2.85;2.20;;;19.20;70.80;;;;;;5023308;28;20085;-79
2022/07/06 06:51:33;;;;;;;5.43;2.00;;;19.20;74.10;;;;;;4991985;28;20069;-79
2022/07/06 06:53:59;;;;;;;2.55;2.30;;;19.20;71.50;;;;;;4968211;28;20027;-78
2022/07/06 06:56:24;;;;;;;4.70;2.60;;;19.30;76.40;;;;;;4984596;28;20383;-78
2022/07/06 06:58:50;;;;;;;3.57;2.20;;;19.30;78.40;;;;;;4968891;28;20030;-78
2022/07/06 07:01:17;;;;;;;2.28;1.98;;;19.30;78.60;;;;;;4968363;28;20051;-79
2022/07/06 07:03:43;;;;;;;6.07;2.30;;;19.30;73.90;;;;;;5001709;28;20082;-77
2022/07/06 07:06:09;;;;;;;4.73;2.07;;;19.40;76.80;;;;;;5003928;28;20118;-77
2022/07/06 07:08:35;;;;;;;4.97;1.70;;;19.40;74.30;;;;;;5003912;28;20041;-77
2022/07/06 07:11:00;;;;;;;13.20;4.30;;;19.30;71.90;;;;;;4986545;28;20033;-77
2022/07/06 07:13:26;;;;;;;10.93;4.20;;;19.40;74.00;;;;;;5003537;28;20030;-78
2022/07/06 07:15:52;;;;;;;4.13;2.30;;;19.40;76.10;;;;;;5002872;28;20049;-78
2022/07/06 07:18:18;;;;;;;5.03;2.33;;;19.40;75.30;;;;;;5003370;28;20329;-77
2022/07/06 07:20:43;;;;;;;4.00;2.07;;;19.50;73.70;;;;;;5003074;28;20033;-77
2022/07/06 07:23:09;;;;;;;5.57;2.23;;;19.50;74.60;;;;;;5002224;28;20098;-77
2022/07/06 07:25:35;;;;;;;6.77;1.83;;;19.50;75.80;;;;;;5003835;28;20030;-77
2022/07/06 07:28:01;;;;;;;4.00;2.07;;;19.60;72.00;;;;;;5002623;28;20077;-77
2022/07/06 07:30:26;;;;;;;3.17;1.67;;;19.60;72.00;;;;;;5003714;28;20034;-77
2022/07/06 07:32:52;;;;;;;6.77;2.47;;;19.60;71.50;;;;;;5002844;28;20113;-77
2022/07/06 07:35:18;;;;;;;6.18;2.15;;;19.60;70.70;;;;;;5003204;28;20030;-77
2022/07/06 07:37:44;;;;;;;2.80;2.23;;;19.60;67.50;;;;;;5002627;28;20034;-77
2022/07/06 07:40:10;;;;;;;2.10;1.90;;;19.70;68.30;;;;;;5004537;28;20030;-76
2022/07/06 07:42:38;;;;;;;2.33;1.73;;;19.60;69.50;;;;;;5002431;28;20061;-75
2022/07/06 07:45:05;;;;;;;2.80;2.00;;;19.60;70.90;;;;;;5001176;28;20479;-78
2022/07/06 07:47:30;;;;;;;5.55;1.92;;;19.60;71.80;;;;;;5002087;28;20021;-74
2022/07/06 07:49:56;;;;;;;5.37;2.33;;;19.70;75.50;;;;;;5002998;28;20093;-75
2022/07/06 07:52:22;;;;;;;2.30;1.70;;;19.80;76.80;;;;;;5001690;28;20035;-73
2022/07/06 07:54:48;;;;;;;5.07;2.00;;;19.80;73.00;;;;;;5002477;28;20093;-73
2022/07/06 07:57:13;;;;;;;4.90;1.87;;;19.90;72.20;;;;;;5002568;28;20030;-74
2022/07/06 07:59:39;;;;;;;3.40;1.90;;;20.00;68.80;;;;;;5001875;28;20030;-74
2022/07/06 08:02:05;;;;;;;4.70;2.60;;;20.00;67.90;;;;;;4986921;28;20033;-74
2022/07/06 08:04:30;;;;;;;2.23;1.90;;;20.10;68.90;;;;;;5005091;28;20081;-74
2022/07/06 08:06:56;;;;;;;2.80;1.57;;;20.20;69.40;;;;;;5006296;28;20042;-75
2022/07/06 08:09:22;;;;;;;4.23;1.63;;;20.20;68.20;;;;;;5005235;28;20083;-72
2022/07/06 08:11:48;;;;;;;1.73;1.50;;;20.20;66.60;;;;;;5006178;28;20077;-73
2022/07/06 08:14:14;;;;;;;4.93;1.90;;;20.30;65.60;;;;;;5005794;28;20030;-73
2022/07/06 08:16:40;;;;;;;2.80;1.60;;;20.30;63.80;;;;;;5004872;28;20022;-73
2022/07/06 08:19:06;;;;;;;3.28;1.65;;;20.30;66.80;;;;;;5006087;28;20034;-73
2022/07/06 08:21:32;;;;;;;4.23;1.23;;;20.40;68.50;;;;;;5006242;28;20058;-73
2022/07/06 08:23:59;;;;;;;2.73;1.60;;;20.50;68.80;;;;;;5005906;28;20026;-76
2022/07/06 08:26:25;;;;;;;6.30;1.75;;;20.50;68.70;;;;;;5004826;28;20018;-76
2022/07/06 08:28:51;;;;;;;6.13;1.80;;;20.50;71.80;;;;;;5006316;28;20086;-75
2022/07/06 08:31:17;;;;;;;2.53;1.83;;;20.50;69.50;;;;;;5007024;28;20033;-75
2022/07/06 08:33:43;;;;;;;9.50;3.08;;;20.50;68.30;;;;;;5005760;28;20317;-76
2022/07/06 08:36:09;;;;;;;8.23;2.77;;;20.50;66.90;;;;;;5006033;28;20034;-76
2022/07/06 08:38:35;;;;;;;10.70;4.20;;;20.50;69.00;;;;;;5006194;28;20034;-76
2022/07/06 08:41:23;;;;;;;3.63;2.10;;;20.50;68.20;;;;;;5007086;28;20034;-76
2022/07/06 08:43:51;;;;;;;4.82;2.85;;;20.60;65.70;;;;;;5005496;28;20033;-75
2022/07/06 08:46:16;;;;;;;13.75;3.63;;;20.60;68.20;;;;;;5005778;28;20015;-75
2022/07/06 08:48:42;;;;;;;3.87;2.20;;;20.60;69.20;;;;;;5006131;28;20030;-75
2022/07/06 08:51:08;;;;;;;5.23;2.03;;;20.60;70.70;;;;;;5005882;28;20030;-75
2022/07/06 08:53:34;;;;;;;2.03;1.63;;;20.60;71.70;;;;;;5005571;28;20265;-75
2022/07/06 08:56:01;;;;;;;4.97;1.67;;;20.70;72.10;;;;;;5005624;28;20344;-75
2022/07/06 08:58:27;;;;;;;5.45;1.50;;;20.70;69.60;;;;;;5005862;28;20030;-75
2022/07/06 09:00:54;;;;;;;5.03;1.70;;;20.80;62.50;;;;;;4989160;28;20018;-74
2022/07/06 09:03:20;;;;;;;3.08;1.65;;;20.90;59.80;;;;;;5005358;28;20022;-75
2022/07/06 09:05:46;;;;;;;1.90;1.60;;;21.00;62.20;;;;;;4989161;28;20060;-74
2022/07/06 09:08:13;;;;;;;3.85;2.35;;;21.00;64.50;;;;;;5006778;28;20029;-75
2022/07/06 09:10:38;;;;;;;2.67;1.60;;;20.90;62.40;;;;;;5005558;28;20384;-75
2022/07/06 09:13:05;;;;;;;4.57;2.00;;;21.00;62.80;;;;;;5005089;28;20029;-75
2022/07/06 09:15:33;;;;;;;4.63;1.40;;;21.00;64.40;;;;;;5005048;28;20032;-75
2022/07/06 09:17:58;;;;;;;3.17;2.17;;;20.90;64.90;;;;;;5005551;28;20022;-75
2022/07/06 09:20:24;;;;;;;2.37;1.57;;;21.00;63.90;;;;;;5006304;28;20044;-75
2022/07/06 09:22:50;;;;;;;2.13;1.73;;;21.00;60.80;;;;;;5004859;28;20217;-75
2022/07/06 09:25:16;;;;;;;2.27;1.43;;;21.00;59.70;;;;;;5006411;28;20276;-75
2022/07/06 09:27:47;;;;;;;5.88;1.63;;;21.10;60.10;;;;;;5005772;28;20026;-76
2022/07/06 09:30:13;;;;;;;5.97;3.35;;;21.10;59.60;;;;;;5005150;28;20033;-76
2022/07/06 09:32:50;;;;;;;3.55;2.20;;;21.10;59.40;;;;;;5005140;28;20329;-76
2022/07/06 09:35:32;;;;;;;2.95;1.88;;;21.10;62.60;;;;;;5004312;28;20400;-76
2022/07/06 09:38:14;;;;;;;5.10;2.15;;;21.20;61.10;;;;;;5003904;28;20098;-75
2022/07/06 09:40:40;;;;;;;3.17;1.77;;;21.20;59.70;;;;;;4992485;28;20371;-75
2022/07/06 09:43:22;;;;;;;1.92;1.40;;;21.20;59.10;;;;;;4984951;28;20060;-75
2022/07/06 09:45:52;;;;;;;3.83;1.83;;;21.30;60.10;;;;;;4999152;28;20026;-75
2022/07/06 09:48:27;;;;;;;3.70;1.45;;;21.40;60.20;;;;;;5004639;28;20041;-76
2022/07/06 09:50:57;;;;;;;3.10;1.90;;;21.50;60.80;;;;;;5006075;28;20077;-75
2022/07/06 09:53:25;;;;;;;2.80;1.48;;;21.40;59.80;;;;;;4988785;28;20056;-76
2022/07/06 09:55:53;;;;;;;1.95;1.77;;;21.50;60.90;;;;;;4989090;28;20014;-75
2022/07/06 09:58:19;;;;;;;2.45;1.75;;;21.50;58.60;;;;;;5004740;28;20030;-75
2022/07/06 10:00:45;;;;;;;3.78;1.77;;;21.60;60.80;;;;;;5004801;28;20044;-76
2022/07/06 10:03:12;;;;;;;3.20;2.15;;;21.60;59.40;;;;;;5004765;28;20022;-76
2022/07/06 10:05:39;;;;;;;2.50;1.90;;;21.60;60.70;;;;;;5004802;28;20029;-75
2022/07/06 10:08:08;;;;;;;3.20;2.13;;;21.70;60.10;;;;;;5004562;28;20069;-75
2022/07/06 10:10:35;;;;;;;3.95;1.90;;;21.80;59.90;;;;;;5004357;28;20030;-75
2022/07/06 10:13:01;;;;;;;6.22;2.17;;;21.80;60.10;;;;;;5004428;28;20105;-75
2022/07/06 10:15:28;;;;;;;2.30;1.48;;;21.90;60.80;;;;;;5003897;28;20229;-76
2022/07/06 10:17:54;;;;;;;;;;;21.90;59.80;;;;;;5004640;28;20022;-76
2022/07/06 10:20:20;;;;;;;4.00;2.10;;;22.00;60.50;;;;;;4987962;28;19910;-76
2022/07/06 10:22:49;;;;;;;2.58;1.88;;;22.00;58.70;;;;;;4988234;28;20022;-76
2022/07/06 10:25:16;;;;;;;3.78;2.17;;;22.00;64.50;;;;;;5002731;28;20072;-77
2022/07/06 10:27:43;;;;;;;4.30;1.80;;;22.10;60.20;;;;;;5002857;28;20236;-77
2022/07/06 10:30:10;;;;;;;2.80;1.60;;;22.00;62.60;;;;;;5002651;28;20026;-77
2022/07/06 10:32:37;;;;;;;6.03;2.13;;;21.90;62.60;;;;;;4986306;28;20356;-77
2022/07/06 10:35:03;;;;;;;2.65;1.50;;;21.90;63.40;;;;;;5002503;28;20256;-78
2022/07/06 10:37:29;;;;;;;1.90;1.70;;;21.90;60.30;;;;;;4986418;28;20084;-77
2022/07/06 10:42:49;;;;;;;4.57;2.03;;;22.00;60.70;;;;;;5002324;28;20144;-77
2022/07/06 10:45:21;;;;;;;4.47;1.85;;;22.00;61.30;;;;;;5001697;28;20050;-77
2022/07/06 10:47:47;;;;;;;5.88;1.80;;;22.10;61.90;;;;;;5002444;28;20310;-77
2022/07/06 10:50:13;;;;;;;2.20;1.35;;;22.10;61.40;;;;;;5003465;28;20028;-77
2022/07/06 10:52:57;;;;;;;3.45;1.90;;;22.10;60.20;;;;;;5003248;28;20321;-76
2022/07/06 10:55:35;;;;;;;4.63;1.90;;;22.00;59.00;;;;;;5002356;28;20389;-75
2022/07/06 10:58:01;;;;;;;5.03;1.90;;;22.00;59.70;;;;;;5003643;28;20090;-77
2022/07/06 11:00:52;;;;;;;2.60;1.40;;;21.90;60.90;;;;;;4985933;28;20077;-77
2022/07/06 11:03:34;;;;;;;3.85;1.85;;;22.00;59.70;;;;;;5003274;28;20034;-77
2022/07/06 11:06:10;;;;;;;2.63;1.90;;;22.10;60.90;;;;;;5003962;28;20367;-77
2022/07/06 11:08:59;;;;;;;3.08;1.88;;;22.20;61.80;;;;;;5003032;28;20014;-78
2022/07/06 11:11:33;;;;;;;4.03;1.95;;;22.40;62.70;;;;;;5002750;28;20026;-76
2022/07/06 11:14:05;;;;;;;1.83;1.48;;;22.50;61.00;;;;;;5003402;28;20034;-77
2022/07/06 11:16:48;;;;;;;4.28;1.95;;;22.60;57.60;;;;;;5003644;28;20026;-74
2022/07/06 11:19:21;;;;;;;3.95;1.55;;;22.60;59.50;;;;;;5002469;28;20037;-76
2022/07/06 11:21:57;;;;;;;3.05;1.42;;;22.50;59.80;;;;;;5003187;28;20018;-76
2022/07/06 11:24:29;;;;;;;3.75;2.33;;;22.60;58.70;;;;;;4985693;28;20056;-75
2022/07/06 11:26:56;;;;;;;3.75;1.60;;;22.60;58.60;;;;;;5002261;28;20026;-76
2022/07/06 11:29:24;;;;;;;2.55;1.35;;;22.70;57.10;;;;;;5002048;28;20101;-77
2022/07/06 11:31:53;;;;;;;2.00;1.60;;;22.70;57.90;;;;;;5002210;28;20034;-76
2022/07/06 11:34:27;;;;;;;12.25;1.90;;;22.70;56.50;;;;;;5004181;28;20198;-75
2022/07/06 11:36:57;;;;;;;4.38;1.55;;;22.60;56.20;;;;;;5005977;28;20081;-75
2022/07/06 11:39:26;;;;;;;5.43;1.70;;;22.60;57.40;;;;;;5006810;28;20026;-75
2022/07/06 11:41:54;;;;;;;5.22;1.35;;;22.70;56.60;;;;;;5006683;28;20026;-75
2022/07/06 11:44:20;;;;;;;3.58;1.40;;;22.60;54.80;;;;;;5006426;28;20356;-75
2022/07/06 11:46:45;;;;;;;3.60;1.57;;;22.60;56.10;;;;;;5006766;28;20094;-74
2022/07/06 11:49:11;;;;;;;2.33;1.70;;;22.70;55.80;;;;;;5007019;28;20022;-75
2022/07/06 11:51:39;;;;;;;2.60;1.30;;;22.90;56.50;;;;;;5007869;28;20395;-75
2022/07/06 11:54:13;;;;;;;4.85;1.70;;;23.10;55.70;;;;;;5006583;28;20265;-75
2022/07/06 11:56:52;;;;;;;4.93;1.50;;;23.20;58.70;;;;;;5006626;28;20027;-74
2022/07/06 11:59:23;;;;;;;5.50;1.27;;;23.30;58.50;;;;;;5007441;28;20045;-73
2022/07/06 12:01:49;;;;;;;3.95;1.35;;;23.20;53.80;;;;;;5007233;28;20014;-75
2022/07/06 12:04:15;;;;;;;3.20;1.42;;;23.30;58.10;;;;;;5006391;28;20065;-76
2022/07/06 12:06:41;;;;;;;2.23;1.47;;;23.40;59.70;;;;;;5007837;28;20030;-75
2022/07/06 12:09:06;;;;;;;3.60;1.57;;;23.50;55.30;;;;;;4990615;28;20034;-75
2022/07/06 12:11:34;;;;;;;3.67;1.50;;;23.70;52.40;;;;;;5005910;28;20097;-75
2022/07/06 12:14:02;;;;;;;3.20;1.33;;;23.80;54.80;;;;;;5005839;28;20093;-75
2022/07/06 12:16:31;;;;;;;3.88;1.60;;;23.90;52.20;;;;;;5004958;28;20321;-75
2022/07/06 12:18:57;;;;;;;2.13;1.25;;;24.00;52.50;;;;;;5006213;28;20233;-75
2022/07/06 12:21:22;;;;;;;1.83;1.33;;;24.20;51.60;;;;;;5005527;28;20029;-75
2022/07/06 12:23:50;;;;;;;1.50;1.05;;;24.30;52.60;;;;;;4988827;28;20014;-75
2022/07/06 12:26:18;;;;;;;2.95;1.45;;;24.50;53.10;;;;;;5006384;28;20026;-75
2022/07/06 12:28:44;;;;;;;1.83;1.30;;;24.60;55.00;;;;;;5005088;28;20046;-75
2022/07/06 12:31:10;;;;;;;7.32;1.38;;;24.80;52.40;;;;;;5004727;28;20355;-76
2022/07/06 12:33:36;;;;;;;1.63;1.40;;;25.00;50.80;;;;;;5004592;28;20033;-76
2022/07/06 12:36:15;;;;;;;1.30;1.15;;;25.10;49.70;;;;;;4988596;28;20045;-76
2022/07/06 12:38:48;;;;;;;3.53;1.30;;;25.20;50.20;;;;;;5004710;28;20034;-77
2022/07/06 12:41:33;;;;;;;2.47;1.20;;;25.30;50.40;;;;;;5004840;28;20018;-76
2022/07/06 12:44:09;;;;;;;4.00;1.13;;;25.50;49.80;;;;;;5032462;23;20312;-77
2022/07/06 12:46:39;;;;;;;3.27;1.57;;;25.50;49.30;;;;;;4984538;28;20030;-77
2022/07/06 12:49:15;;;;;;;1.75;1.10;;;25.70;50.40;;;;;;4984397;28;20328;-77
2022/07/06 12:51:54;;;;;;;3.22;1.33;;;25.80;46.20;;;;;;4985887;28;20405;-77
2022/07/06 12:54:20;;;;;;;2.00;1.65;;;25.70;49.50;;;;;;4965183;28;20023;-77
2022/07/06 12:57:06;;;;;;;2.45;1.50;;;25.70;51.30;;;;;;4966349;28;20389;-77